sensor_id;sensor_type;location;lat;lon;timestamp;pressure;altitude;pressure_sealevel;temperature;humidity
53679;BME280;40119;52.030;4.708;2022-07-12T00:00:12;102484.97;;;26.74;33.42
53679;BME280;40119;52.030;4.708;2022-07-12T00:02:16;102484.01;;;25.24;35.74
53679;BME280;40119;52.030;4.708;2022-07-12T00:04:21;102479.37;;;26.13;34.47
53679;BME280;40119;52.030;4.708;2022-07-12T00:06:26;102481.16;;;26.66;33.94
53679;BME280;40119;52.030;4.708;2022-07-12T00:08:30;102481.85;;;25.33;35.50
53679;BME280;40119;52.030;4.708;2022-07-12T00:10:35;102482.71;;;25.68;35.12
53679;BME280;40119;52.030;4.708;2022-07-12T00:12:40;102480.65;;;27.48;32.90
53679;BME280;40119;52.030;4.708;2022-07-12T00:14:49;102485.89;;;25.94;34.44
53679;BME280;40119;52.030;4.708;2022-07-12T00:16:53;102488.27;;;25.18;35.60
53679;BME280;40119;52.030;4.708;2022-07-12T00:18:58;102485.66;;;25.56;34.86
53679;BME280;40119;52.030;4.708;2022-07-12T00:21:02;102486.30;;;26.25;34.59
53679;BME280;40119;52.030;4.708;2022-07-12T00:23:07;102488.39;;;26.38;34.39
53679;BME280;40119;52.030;4.708;2022-07-12T00:25:11;102489.77;;;25.95;34.37
53679;BME280;40119;52.030;4.708;2022-07-12T00:27:15;102489.63;;;26.10;34.52
53679;BME280;40119;52.030;4.708;2022-07-12T00:29:19;102486.87;;;26.89;33.48
53679;BME280;40119;52.030;4.708;2022-07-12T00:31:24;102486.52;;;25.44;35.15
53679;BME280;40119;52.030;4.708;2022-07-12T00:33:28;102484.65;;;25.72;34.46
53679;BME280;40119;52.030;4.708;2022-07-12T00:35:32;102484.59;;;25.74;34.46
53679;BME280;40119;52.030;4.708;2022-07-12T00:37:37;102482.77;;;26.17;34.25
53679;BME280;40119;52.030;4.708;2022-07-12T00:39:42;102482.09;;;24.40;36.18
53679;BME280;40119;52.030;4.708;2022-07-12T00:41:47;102480.03;;;26.03;34.73
53679;BME280;40119;52.030;4.708;2022-07-12T00:43:52;102479.61;;;25.46;35.36
53679;BME280;40119;52.030;4.708;2022-07-12T00:45:56;102486.11;;;25.76;34.56
53679;BME280;40119;52.030;4.708;2022-07-12T00:48:01;102489.34;;;24.58;36.08
53679;BME280;40119;52.030;4.708;2022-07-12T00:50:07;102489.08;;;26.03;34.82
53679;BME280;40119;52.030;4.708;2022-07-12T00:52:12;102488.21;;;25.55;34.81
53679;BME280;40119;52.030;4.708;2022-07-12T00:54:17;102491.27;;;25.13;35.44
53679;BME280;40119;52.030;4.708;2022-07-12T00:56:22;102488.38;;;25.90;34.51
53679;BME280;40119;52.030;4.708;2022-07-12T00:58:27;102493.60;;;23.29;38.05
53679;BME280;40119;52.030;4.708;2022-07-12T01:00:33;102492.09;;;25.35;35.81
53679;BME280;40119;52.030;4.708;2022-07-12T01:02:38;102490.77;;;24.98;35.99
53679;BME280;40119;52.030;4.708;2022-07-12T01:04:44;102486.02;;;23.95;37.06
53679;BME280;40119;52.030;4.708;2022-07-12T01:06:49;102481.09;;;24.91;36.10
53679;BME280;40119;52.030;4.708;2022-07-12T01:08:54;102476.50;;;25.34;35.41
53679;BME280;40119;52.030;4.708;2022-07-12T01:11:00;102476.42;;;23.00;38.84
53679;BME280;40119;52.030;4.708;2022-07-12T01:13:05;102472.64;;;25.77;35.17
53679;BME280;40119;52.030;4.708;2022-07-12T01:15:10;102474.26;;;24.10;37.47
53679;BME280;40119;52.030;4.708;2022-07-12T01:17:14;102471.52;;;22.91;39.32
53679;BME280;40119;52.030;4.708;2022-07-12T01:19:21;102466.94;;;24.11;38.01
53679;BME280;40119;52.030;4.708;2022-07-12T01:21:26;102466.72;;;23.02;38.72
53679;BME280;40119;52.030;4.708;2022-07-12T01:23:37;102459.13;;;24.74;37.03
53679;BME280;40119;52.030;4.708;2022-07-12T01:25:42;102453.98;;;26.18;35.08
53679;BME280;40119;52.030;4.708;2022-07-12T01:27:47;102454.70;;;26.33;34.76
53679;BME280;40119;52.030;4.708;2022-07-12T01:29:51;102447.66;;;26.58;34.21
53679;BME280;40119;52.030;4.708;2022-07-12T01:31:55;102448.28;;;26.20;34.57
53679;BME280;40119;52.030;4.708;2022-07-12T01:34:01;102450.40;;;25.79;34.59
53679;BME280;40119;52.030;4.708;2022-07-12T01:36:06;102453.72;;;25.57;34.91
53679;BME280;40119;52.030;4.708;2022-07-12T01:38:11;102461.02;;;24.03;37.48
53679;BME280;40119;52.030;4.708;2022-07-12T01:40:16;102459.08;;;26.57;34.40
53679;BME280;40119;52.030;4.708;2022-07-12T01:42:22;102463.32;;;26.09;34.59
53679;BME280;40119;52.030;4.708;2022-07-12T01:44:27;102469.75;;;25.02;35.67
53679;BME280;40119;52.030;4.708;2022-07-12T01:46:31;102469.11;;;26.41;34.19
53679;BME280;40119;52.030;4.708;2022-07-12T01:48:36;102474.55;;;25.25;35.24
53679;BME280;40119;52.030;4.708;2022-07-12T01:50:40;102476.62;;;25.99;34.23
53679;BME280;40119;52.030;4.708;2022-07-12T01:52:46;102476.02;;;25.52;34.79
53679;BME280;40119;52.030;4.708;2022-07-12T01:54:51;102479.85;;;24.21;36.36
53679;BME280;40119;52.030;4.708;2022-07-12T01:56:56;102477.93;;;24.26;36.37
53679;BME280;40119;52.030;4.708;2022-07-12T01:59:01;102477.80;;;24.26;36.52
53679;BME280;40119;52.030;4.708;2022-07-12T02:01:06;102478.12;;;25.89;34.67
53679;BME280;40119;52.030;4.708;2022-07-12T02:03:12;102485.12;;;24.97;35.39
53679;BME280;40119;52.030;4.708;2022-07-12T02:05:16;102486.43;;;25.02;35.69
53679;BME280;40119;52.030;4.708;2022-07-12T02:07:23;102487.62;;;24.86;35.55
53679;BME280;40119;52.030;4.708;2022-07-12T02:09:27;102484.58;;;26.18;34.31
53679;BME280;40119;52.030;4.708;2022-07-12T02:11:32;102483.09;;;24.87;35.49
53679;BME280;40119;52.030;4.708;2022-07-12T02:13:36;102479.43;;;25.62;34.55
53679;BME280;40119;52.030;4.708;2022-07-12T02:15:40;102476.03;;;26.40;33.55
53679;BME280;40119;52.030;4.708;2022-07-12T02:17:45;102477.06;;;25.55;34.43
53679;BME280;40119;52.030;4.708;2022-07-12T02:19:49;102480.55;;;25.30;35.29
53679;BME280;40119;52.030;4.708;2022-07-12T02:21:53;102479.19;;;24.75;35.49
53679;BME280;40119;52.030;4.708;2022-07-12T02:23:58;102479.76;;;26.01;34.18
53679;BME280;40119;52.030;4.708;2022-07-12T02:26:02;102484.72;;;25.83;34.14
53679;BME280;40119;52.030;4.708;2022-07-12T02:28:06;102485.61;;;25.70;34.35
53679;BME280;40119;52.030;4.708;2022-07-12T02:30:11;102483.01;;;24.33;35.64
53679;BME280;40119;52.030;4.708;2022-07-12T02:32:15;102478.07;;;26.22;34.25
53679;BME280;40119;52.030;4.708;2022-07-12T02:34:19;102479.00;;;25.37;35.01
53679;BME280;40119;52.030;4.708;2022-07-12T02:36:34;102474.16;;;26.00;33.84
53679;BME280;40119;52.030;4.708;2022-07-12T02:38:38;102471.48;;;24.32;35.85
53679;BME280;40119;52.030;4.708;2022-07-12T02:40:43;102469.00;;;25.84;34.28
53679;BME280;40119;52.030;4.708;2022-07-12T02:42:48;102469.53;;;25.06;34.94
53679;BME280;40119;52.030;4.708;2022-07-12T02:44:53;102469.67;;;25.40;34.63
53679;BME280;40119;52.030;4.708;2022-07-12T02:46:59;102469.38;;;24.34;35.82
53679;BME280;40119;52.030;4.708;2022-07-12T02:49:04;102473.23;;;22.88;38.39
53679;BME280;40119;52.030;4.708;2022-07-12T02:51:09;102471.06;;;24.51;36.89
53679;BME280;40119;52.030;4.708;2022-07-12T02:53:19;102476.31;;;22.40;39.29
53679;BME280;40119;52.030;4.708;2022-07-12T02:55:24;102478.73;;;24.13;37.23
53679;BME280;40119;52.030;4.708;2022-07-12T02:57:29;102475.66;;;24.25;36.54
53679;BME280;40119;52.030;4.708;2022-07-12T02:59:38;102477.47;;;23.70;37.53
53679;BME280;40119;52.030;4.708;2022-07-12T03:01:43;102479.40;;;25.34;35.59
53679;BME280;40119;52.030;4.708;2022-07-12T03:03:48;102476.58;;;24.77;35.83
53679;BME280;40119;52.030;4.708;2022-07-12T03:05:52;102475.45;;;25.81;34.46
53679;BME280;40119;52.030;4.708;2022-07-12T03:07:57;102472.68;;;26.44;33.70
53679;BME280;40119;52.030;4.708;2022-07-12T03:10:03;102475.35;;;24.84;36.24
53679;BME280;40119;52.030;4.708;2022-07-12T03:12:08;102481.81;;;24.83;35.42
53679;BME280;40119;52.030;4.708;2022-07-12T03:14:16;102487.61;;;22.64;39.72
53679;BME280;40119;52.030;4.708;2022-07-12T03:16:24;102492.08;;;22.94;39.16
53679;BME280;40119;52.030;4.708;2022-07-12T03:18:28;102496.23;;;24.49;36.94
53679;BME280;40119;52.030;4.708;2022-07-12T03:20:33;102493.88;;;25.04;35.89
53679;BME280;40119;52.030;4.708;2022-07-12T03:22:37;102491.61;;;25.90;34.69
53679;BME280;40119;52.030;4.708;2022-07-12T03:24:42;102487.10;;;25.21;35.12
53679;BME280;40119;52.030;4.708;2022-07-12T03:26:47;102490.05;;;23.50;37.72
53679;BME280;40119;52.030;4.708;2022-07-12T03:28:56;102494.61;;;24.38;36.09
53679;BME280;40119;52.030;4.708;2022-07-12T03:31:01;102493.02;;;23.69;37.38
53679;BME280;40119;52.030;4.708;2022-07-12T03:33:06;102495.63;;;24.72;36.12
53679;BME280;40119;52.030;4.708;2022-07-12T03:35:15;102496.58;;;25.20;35.07
53679;BME280;40119;52.030;4.708;2022-07-12T03:37:26;102495.20;;;26.56;33.83
53679;BME280;40119;52.030;4.708;2022-07-12T03:39:36;102499.68;;;23.98;36.71
53679;BME280;40119;52.030;4.708;2022-07-12T03:41:41;102500.62;;;24.78;35.59
53679;BME280;40119;52.030;4.708;2022-07-12T03:43:46;102499.56;;;25.24;35.21
53679;BME280;40119;52.030;4.708;2022-07-12T03:45:51;102498.29;;;24.50;35.80
53679;BME280;40119;52.030;4.708;2022-07-12T03:47:57;102491.77;;;24.51;35.42
53679;BME280;40119;52.030;4.708;2022-07-12T03:50:03;102494.58;;;25.21;34.99
53679;BME280;40119;52.030;4.708;2022-07-12T03:52:08;102492.82;;;25.76;34.39
53679;BME280;40119;52.030;4.708;2022-07-12T03:54:13;102496.58;;;23.79;36.71
53679;BME280;40119;52.030;4.708;2022-07-12T03:56:36;102498.06;;;25.44;34.69
53679;BME280;40119;52.030;4.708;2022-07-12T03:58:40;102495.38;;;24.58;35.73
53679;BME280;40119;52.030;4.708;2022-07-12T04:00:45;102497.40;;;25.22;34.83
53679;BME280;40119;52.030;4.708;2022-07-12T04:02:49;102495.77;;;25.29;34.75
53679;BME280;40119;52.030;4.708;2022-07-12T04:04:57;102492.41;;;25.65;34.08
53679;BME280;40119;52.030;4.708;2022-07-12T04:07:03;102491.50;;;26.08;33.61
53679;BME280;40119;52.030;4.708;2022-07-12T04:09:08;102488.81;;;26.12;33.84
53679;BME280;40119;52.030;4.708;2022-07-12T04:11:12;102487.64;;;25.95;33.85
53679;BME280;40119;52.030;4.708;2022-07-12T04:13:21;102485.63;;;25.44;34.48
53679;BME280;40119;52.030;4.708;2022-07-12T04:15:26;102485.53;;;26.98;33.12
53679;BME280;40119;52.030;4.708;2022-07-12T04:17:31;102487.88;;;25.63;34.35
53679;BME280;40119;52.030;4.708;2022-07-12T04:19:35;102491.96;;;26.70;33.54
53679;BME280;40119;52.030;4.708;2022-07-12T04:21:41;102494.54;;;26.34;33.79
53679;BME280;40119;52.030;4.708;2022-07-12T04:23:45;102494.53;;;26.21;33.92
53679;BME280;40119;52.030;4.708;2022-07-12T04:25:50;102497.78;;;25.69;34.76
53679;BME280;40119;52.030;4.708;2022-07-12T04:27:55;102503.92;;;24.98;35.82
53679;BME280;40119;52.030;4.708;2022-07-12T04:30:00;102504.87;;;25.04;35.81
53679;BME280;40119;52.030;4.708;2022-07-12T04:32:05;102501.40;;;26.36;34.44
53679;BME280;40119;52.030;4.708;2022-07-12T04:34:09;102504.96;;;24.21;37.36
53679;BME280;40119;52.030;4.708;2022-07-12T04:36:14;102508.33;;;23.58;38.52
53679;BME280;40119;52.030;4.708;2022-07-12T04:38:21;102507.21;;;24.71;36.88
53679;BME280;40119;52.030;4.708;2022-07-12T04:40:51;102509.57;;;24.83;37.65
53679;BME280;40119;52.030;4.708;2022-07-12T04:43:02;102505.89;;;24.80;37.27
53679;BME280;40119;52.030;4.708;2022-07-12T04:45:08;102512.63;;;21.03;42.99
53679;BME280;40119;52.030;4.708;2022-07-12T04:47:13;102514.04;;;21.10;43.84
53679;BME280;40119;52.030;4.708;2022-07-12T04:49:24;102506.14;;;24.50;37.84
53679;BME280;40119;52.030;4.708;2022-07-12T04:51:29;102511.01;;;19.25;46.09
53679;BME280;40119;52.030;4.708;2022-07-12T04:53:34;102505.59;;;22.64;41.98
53679;BME280;40119;52.030;4.708;2022-07-12T04:55:55;102506.44;;;24.52;39.14
53679;BME280;40119;52.030;4.708;2022-07-12T04:58:00;102506.16;;;20.19;45.09
53679;BME280;40119;52.030;4.708;2022-07-12T05:00:14;102505.53;;;24.99;38.23
53679;BME280;40119;52.030;4.708;2022-07-12T05:02:19;102508.24;;;22.61;41.24
53679;BME280;40119;52.030;4.708;2022-07-12T05:04:26;102508.06;;;21.57;43.24
53679;BME280;40119;52.030;4.708;2022-07-12T05:06:32;102504.68;;;24.30;39.35
53679;BME280;40119;52.030;4.708;2022-07-12T05:08:41;102504.38;;;22.76;41.55
53679;BME280;40119;52.030;4.708;2022-07-12T05:10:51;102508.75;;;20.89;45.58
53679;BME280;40119;52.030;4.708;2022-07-12T05:12:56;102512.59;;;21.91;43.89
53679;BME280;40119;52.030;4.708;2022-07-12T05:15:01;102521.46;;;18.85;49.82
53679;BME280;40119;52.030;4.708;2022-07-12T05:17:34;102521.52;;;19.83;47.86
53679;BME280;40119;52.030;4.708;2022-07-12T05:19:43;102523.10;;;18.40;50.39
53679;BME280;40119;52.030;4.708;2022-07-12T05:21:48;102522.59;;;20.46;47.21
53679;BME280;40119;52.030;4.708;2022-07-12T05:23:57;102529.34;;;15.81;56.82
53679;BME280;40119;52.030;4.708;2022-07-12T05:26:30;102524.12;;;19.00;50.54
53679;BME280;40119;52.030;4.708;2022-07-12T05:28:35;102521.68;;;23.99;41.74
53679;BME280;40119;52.030;4.708;2022-07-12T05:30:45;102525.46;;;21.93;44.38
53679;BME280;40119;52.030;4.708;2022-07-12T05:32:50;102533.75;;;20.90;46.07
53679;BME280;40119;52.030;4.708;2022-07-12T05:34:55;102531.12;;;22.74;43.45
53679;BME280;40119;52.030;4.708;2022-07-12T05:37:00;102532.78;;;21.40;45.04
53679;BME280;40119;52.030;4.708;2022-07-12T05:39:05;102533.94;;;21.25;46.56
53679;BME280;40119;52.030;4.708;2022-07-12T05:41:11;102537.82;;;20.08;47.31
53679;BME280;40119;52.030;4.708;2022-07-12T05:43:21;102534.83;;;20.64;46.03
53679;BME280;40119;52.030;4.708;2022-07-12T05:45:31;102531.23;;;20.92;47.09
53679;BME280;40119;52.030;4.708;2022-07-12T05:47:36;102530.25;;;22.69;44.40
53679;BME280;40119;52.030;4.708;2022-07-12T05:49:46;102533.89;;;20.92;46.58
53679;BME280;40119;52.030;4.708;2022-07-12T05:51:50;102539.94;;;19.84;49.11
53679;BME280;40119;52.030;4.708;2022-07-12T05:53:55;102534.87;;;24.39;41.06
53679;BME280;40119;52.030;4.708;2022-07-12T05:56:00;102536.28;;;24.34;41.07
53679;BME280;40119;52.030;4.708;2022-07-12T05:58:08;102534.41;;;26.58;37.95
53679;BME280;40119;52.030;4.708;2022-07-12T06:00:17;102534.71;;;27.14;36.41
53679;BME280;40119;52.030;4.708;2022-07-12T06:02:23;102537.77;;;24.84;38.66
53679;BME280;40119;52.030;4.708;2022-07-12T06:04:29;102535.87;;;25.30;38.03
53679;BME280;40119;52.030;4.708;2022-07-12T06:06:35;102535.45;;;27.05;35.36
53679;BME280;40119;52.030;4.708;2022-07-12T06:08:40;102538.94;;;24.74;39.13
53679;BME280;40119;52.030;4.708;2022-07-12T06:10:46;102539.43;;;22.14;42.75
53679;BME280;40119;52.030;4.708;2022-07-12T06:12:50;102532.73;;;25.29;38.05
53679;BME280;40119;52.030;4.708;2022-07-12T06:14:55;102534.86;;;23.26;40.76
53679;BME280;40119;52.030;4.708;2022-07-12T06:17:00;102534.73;;;25.67;35.96
53679;BME280;40119;52.030;4.708;2022-07-12T06:19:05;102535.03;;;24.67;37.68
53679;BME280;40119;52.030;4.708;2022-07-12T06:21:14;102535.55;;;26.47;35.76
53679;BME280;40119;52.030;4.708;2022-07-12T06:23:19;102534.59;;;27.99;33.60
53679;BME280;40119;52.030;4.708;2022-07-12T06:25:27;102537.49;;;25.41;36.20
53679;BME280;40119;52.030;4.708;2022-07-12T06:27:37;102541.97;;;22.65;40.73
53679;BME280;40119;52.030;4.708;2022-07-12T06:29:41;102536.47;;;27.31;33.86
53679;BME280;40119;52.030;4.708;2022-07-12T06:31:47;102536.71;;;28.62;32.01
53679;BME280;40119;52.030;4.708;2022-07-12T06:33:52;102542.43;;;24.70;36.31
53679;BME280;40119;52.030;4.708;2022-07-12T06:35:56;102540.21;;;25.96;35.45
53679;BME280;40119;52.030;4.708;2022-07-12T06:38:04;102540.68;;;27.85;33.07
53679;BME280;40119;52.030;4.708;2022-07-12T06:40:11;102542.36;;;24.61;37.55
53679;BME280;40119;52.030;4.708;2022-07-12T06:42:17;102544.82;;;23.42;40.32
53679;BME280;40119;52.030;4.708;2022-07-12T06:44:33;102542.24;;;25.07;37.48
53679;BME280;40119;52.030;4.708;2022-07-12T06:46:38;102541.21;;;28.89;33.11
53679;BME280;40119;52.030;4.708;2022-07-12T06:48:43;102544.79;;;25.95;35.06
53679;BME280;40119;52.030;4.708;2022-07-12T06:50:48;102548.97;;;27.90;33.60
53679;BME280;40119;52.030;4.708;2022-07-12T06:52:57;102549.36;;;26.41;34.45
53679;BME280;40119;52.030;4.708;2022-07-12T06:55:13;102554.01;;;23.69;38.17
53679;BME280;40119;52.030;4.708;2022-07-12T06:57:18;102546.76;;;27.13;34.36
53679;BME280;40119;52.030;4.708;2022-07-12T06:59:53;102551.00;;;24.86;36.79
53679;BME280;40119;52.030;4.708;2022-07-12T07:01:59;102546.31;;;30.45;29.45
53679;BME280;40119;52.030;4.708;2022-07-12T07:04:13;102551.12;;;27.65;32.93
53679;BME280;40119;52.030;4.708;2022-07-12T07:06:29;102548.94;;;29.86;30.16
53679;BME280;40119;52.030;4.708;2022-07-12T07:08:44;102549.75;;;29.60;30.31
53679;BME280;40119;52.030;4.708;2022-07-12T07:10:54;102547.83;;;30.77;29.15
53679;BME280;40119;52.030;4.708;2022-07-12T07:13:04;102545.77;;;30.26;30.06
53679;BME280;40119;52.030;4.708;2022-07-12T07:15:16;102543.49;;;31.09;28.73
53679;BME280;40119;52.030;4.708;2022-07-12T07:17:42;102543.25;;;31.53;28.27
53679;BME280;40119;52.030;4.708;2022-07-12T07:20:04;102545.36;;;29.59;30.32
53679;BME280;40119;52.030;4.708;2022-07-12T07:22:25;102542.08;;;32.70;27.07
53679;BME280;40119;52.030;4.708;2022-07-12T07:24:57;102541.21;;;32.54;27.03
53679;BME280;40119;52.030;4.708;2022-07-12T07:27:06;102537.89;;;31.73;27.86
53679;BME280;40119;52.030;4.708;2022-07-12T07:29:30;102541.34;;;33.20;27.00
53679;BME280;40119;52.030;4.708;2022-07-12T07:31:41;102539.37;;;32.59;27.11
53679;BME280;40119;52.030;4.708;2022-07-12T07:33:46;102536.17;;;32.32;27.11
53679;BME280;40119;52.030;4.708;2022-07-12T07:36:10;102534.53;;;30.18;28.73
53679;BME280;40119;52.030;4.708;2022-07-12T07:38:25;102540.47;;;29.56;30.62
53679;BME280;40119;52.030;4.708;2022-07-12T07:40:44;102543.21;;;25.43;35.47
53679;BME280;40119;52.030;4.708;2022-07-12T07:42:54;102539.41;;;31.21;28.46
53679;BME280;40119;52.030;4.708;2022-07-12T07:44:59;102538.76;;;32.54;27.93
53679;BME280;40119;52.030;4.708;2022-07-12T07:47:10;102537.94;;;33.07;27.40
53679;BME280;40119;52.030;4.708;2022-07-12T07:49:32;102536.24;;;33.27;26.90
53679;BME280;40119;52.030;4.708;2022-07-12T07:51:48;102539.79;;;31.84;27.70
53679;BME280;40119;52.030;4.708;2022-07-12T07:54:27;102539.96;;;30.72;28.28
53679;BME280;40119;52.030;4.708;2022-07-12T07:57:14;102539.29;;;30.42;28.80
53679;BME280;40119;52.030;4.708;2022-07-12T07:59:24;102532.49;;;31.72;27.92
53679;BME280;40119;52.030;4.708;2022-07-12T08:01:31;102537.95;;;30.83;28.49
53679;BME280;40119;52.030;4.708;2022-07-12T08:04:06;102545.50;;;28.98;31.31
53679;BME280;40119;52.030;4.708;2022-07-12T08:06:17;102545.70;;;30.51;29.19
53679;BME280;40119;52.030;4.708;2022-07-12T08:08:32;102541.72;;;31.57;28.41
53679;BME280;40119;52.030;4.708;2022-07-12T08:10:44;102547.24;;;28.28;31.36
53679;BME280;40119;52.030;4.708;2022-07-12T08:13:15;102543.87;;;30.51;29.17
53679;BME280;40119;52.030;4.708;2022-07-12T08:15:22;102543.99;;;30.37;29.15
53679;BME280;40119;52.030;4.708;2022-07-12T08:17:37;102543.29;;;30.54;29.00
53679;BME280;40119;52.030;4.708;2022-07-12T08:19:47;102543.49;;;31.86;27.76
53679;BME280;40119;52.030;4.708;2022-07-12T08:22:06;102547.17;;;31.87;27.42
53679;BME280;40119;52.030;4.708;2022-07-12T08:24:14;102547.85;;;31.77;27.98
53679;BME280;40119;52.030;4.708;2022-07-12T08:26:30;102544.85;;;31.84;27.27
53679;BME280;40119;52.030;4.708;2022-07-12T08:28:36;102549.48;;;30.44;28.33
53679;BME280;40119;52.030;4.708;2022-07-12T08:30:40;102552.12;;;29.61;29.17
53679;BME280;40119;52.030;4.708;2022-07-12T08:32:45;102549.47;;;30.10;28.85
53679;BME280;40119;52.030;4.708;2022-07-12T08:34:50;102549.43;;;25.49;34.51
53679;BME280;40119;52.030;4.708;2022-07-12T08:36:55;102536.78;;;31.13;27.64
53679;BME280;40119;52.030;4.708;2022-07-12T08:38:59;102539.86;;;29.93;29.28
53679;BME280;40119;52.030;4.708;2022-07-12T08:41:05;102533.78;;;30.80;28.53
53679;BME280;40119;52.030;4.708;2022-07-12T08:43:09;102526.97;;;32.33;28.04
53679;BME280;40119;52.030;4.708;2022-07-12T08:45:14;102536.87;;;27.66;32.00
53679;BME280;40119;52.030;4.708;2022-07-12T08:47:18;102525.80;;;32.51;26.80
53679;BME280;40119;52.030;4.708;2022-07-12T08:49:23;102522.09;;;31.47;27.56
53679;BME280;40119;52.030;4.708;2022-07-12T08:51:28;102528.81;;;33.16;25.36
53679;BME280;40119;52.030;4.708;2022-07-12T08:53:33;102531.77;;;32.85;25.54
53679;BME280;40119;52.030;4.708;2022-07-12T08:55:37;102534.48;;;33.14;25.95
53679;BME280;40119;52.030;4.708;2022-07-12T08:57:41;102535.21;;;31.96;26.05
53679;BME280;40119;52.030;4.708;2022-07-12T08:59:47;102535.67;;;32.96;25.88
53679;BME280;40119;52.030;4.708;2022-07-12T09:01:53;102534.60;;;33.15;24.80
53679;BME280;40119;52.030;4.708;2022-07-12T09:04:09;102534.44;;;33.03;24.76
53679;BME280;40119;52.030;4.708;2022-07-12T09:06:15;102532.55;;;32.70;25.18
53679;BME280;40119;52.030;4.708;2022-07-12T09:08:28;102532.90;;;34.01;25.28
53679;BME280;40119;52.030;4.708;2022-07-12T09:10:50;102531.83;;;33.08;25.27
53679;BME280;40119;52.030;4.708;2022-07-12T09:12:56;102532.29;;;30.24;27.32
53679;BME280;40119;52.030;4.708;2022-07-12T09:15:18;102534.20;;;32.44;25.46
53679;BME280;40119;52.030;4.708;2022-07-12T09:17:24;102535.39;;;34.14;24.31
53679;BME280;40119;52.030;4.708;2022-07-12T09:19:29;102536.48;;;34.02;24.05
53679;BME280;40119;52.030;4.708;2022-07-12T09:21:33;102538.57;;;33.77;23.92
53679;BME280;40119;52.030;4.708;2022-07-12T09:23:51;102536.35;;;33.57;24.05
53679;BME280;40119;52.030;4.708;2022-07-12T09:25:57;102540.67;;;33.72;23.36
53679;BME280;40119;52.030;4.708;2022-07-12T09:28:03;102543.98;;;33.54;24.02
53679;BME280;40119;52.030;4.708;2022-07-12T09:30:10;102547.38;;;33.95;24.51
53679;BME280;40119;52.030;4.708;2022-07-12T09:32:20;102545.43;;;34.12;23.57
53679;BME280;40119;52.030;4.708;2022-07-12T09:34:26;102544.07;;;33.23;24.34
53679;BME280;40119;52.030;4.708;2022-07-12T09:36:36;102542.37;;;32.69;24.84
53679;BME280;40119;52.030;4.708;2022-07-12T09:38:51;102538.02;;;34.69;22.97
53679;BME280;40119;52.030;4.708;2022-07-12T09:40:57;102533.62;;;33.65;24.13
53679;BME280;40119;52.030;4.708;2022-07-12T09:43:03;102529.90;;;34.46;22.65
53679;BME280;40119;52.030;4.708;2022-07-12T09:45:13;102532.94;;;30.31;25.69
53679;BME280;40119;52.030;4.708;2022-07-12T09:47:19;102529.93;;;33.48;24.18
53679;BME280;40119;52.030;4.708;2022-07-12T09:49:26;102526.97;;;31.58;23.13
53679;BME280;40119;52.030;4.708;2022-07-12T09:51:33;102533.80;;;34.02;23.50
53679;BME280;40119;52.030;4.708;2022-07-12T09:53:44;102532.89;;;34.60;22.60
53679;BME280;40119;52.030;4.708;2022-07-12T09:55:52;102534.96;;;34.51;22.53
53679;BME280;40119;52.030;4.708;2022-07-12T09:58:03;102541.44;;;33.91;23.68
53679;BME280;40119;52.030;4.708;2022-07-12T10:00:15;102536.76;;;30.35;25.83
53679;BME280;40119;52.030;4.708;2022-07-12T10:02:23;102538.29;;;34.46;22.39
53679;BME280;40119;52.030;4.708;2022-07-12T10:04:29;102533.11;;;35.10;21.83
53679;BME280;40119;52.030;4.708;2022-07-12T10:06:39;102536.44;;;31.78;24.00
53679;BME280;40119;52.030;4.708;2022-07-12T10:08:45;102536.49;;;32.13;24.92
53679;BME280;40119;52.030;4.708;2022-07-12T10:10:56;102536.33;;;32.35;24.08
53679;BME280;40119;52.030;4.708;2022-07-12T10:13:07;102540.27;;;29.83;27.06
53679;BME280;40119;52.030;4.708;2022-07-12T10:15:21;102535.16;;;34.22;22.72
53679;BME280;40119;52.030;4.708;2022-07-12T10:17:27;102537.53;;;32.05;24.79
53679;BME280;40119;52.030;4.708;2022-07-12T10:19:33;102537.08;;;29.97;24.35
53679;BME280;40119;52.030;4.708;2022-07-12T10:21:39;102539.41;;;32.34;24.43
53679;BME280;40119;52.030;4.708;2022-07-12T10:23:44;102536.45;;;34.13;23.56
53679;BME280;40119;52.030;4.708;2022-07-12T10:25:52;102536.33;;;31.58;23.74
53679;BME280;40119;52.030;4.708;2022-07-12T10:27:57;102540.85;;;33.03;23.54
53679;BME280;40119;52.030;4.708;2022-07-12T10:30:19;102548.86;;;32.41;23.95
53679;BME280;40119;52.030;4.708;2022-07-12T10:32:25;102545.08;;;32.83;22.90
53679;BME280;40119;52.030;4.708;2022-07-12T10:34:30;102549.30;;;34.46;22.17
53679;BME280;40119;52.030;4.708;2022-07-12T10:37:07;102556.02;;;26.82;29.80
53679;BME280;40119;52.030;4.708;2022-07-12T10:39:12;102545.45;;;32.94;23.37
53679;BME280;40119;52.030;4.708;2022-07-12T10:41:22;102548.96;;;35.22;22.41
53679;BME280;40119;52.030;4.708;2022-07-12T10:43:37;102543.15;;;35.61;22.12
53679;BME280;40119;52.030;4.708;2022-07-12T10:45:48;102540.98;;;34.60;22.42
53679;BME280;40119;52.030;4.708;2022-07-12T10:47:59;102537.71;;;35.21;21.42
53679;BME280;40119;52.030;4.708;2022-07-12T10:50:04;102541.97;;;33.54;23.03
53679;BME280;40119;52.030;4.708;2022-07-12T10:52:26;102540.90;;;34.37;22.75
53679;BME280;40119;52.030;4.708;2022-07-12T10:54:31;102538.35;;;33.75;21.50
53679;BME280;40119;52.030;4.708;2022-07-12T10:56:56;102540.23;;;35.49;21.16
53679;BME280;40119;52.030;4.708;2022-07-12T10:59:01;102535.68;;;34.63;20.58
53679;BME280;40119;52.030;4.708;2022-07-12T11:01:13;102535.49;;;31.55;23.30
53679;BME280;40119;52.030;4.708;2022-07-12T11:03:24;102529.70;;;35.23;19.92
53679;BME280;40119;52.030;4.708;2022-07-12T11:05:34;102534.93;;;32.24;23.37
53679;BME280;40119;52.030;4.708;2022-07-12T11:07:40;102532.75;;;34.37;20.82
53679;BME280;40119;52.030;4.708;2022-07-12T11:09:51;102536.78;;;34.15;22.37